sensor_id;sensor_type;location;lat;lon;timestamp;P1;durP1;ratioP1;P2;durP2;ratioP2
75220;SDS011;63802;53.232;6.570;2023-09-30T00:00:24;13.57;;;3.88;;
75220;SDS011;63802;53.232;6.570;2023-09-30T00:02:49;18.85;;;4.97;;
75220;SDS011;63802;53.232;6.570;2023-09-30T00:05:15;19.50;;;4.10;;
75220;SDS011;63802;53.232;6.570;2023-09-30T00:07:42;16.20;;;3.97;;
75220;SDS011;63802;53.232;6.570;2023-09-30T00:10:07;15.25;;;3.80;;
75220;SDS011;63802;53.232;6.570;2023-09-30T00:12:33;16.25;;;4.85;;
75220;SDS011;63802;53.232;6.570;2023-09-30T00:14:59;13.38;;;3.58;;
75220;SDS011;63802;53.232;6.570;2023-09-30T00:17:24;14.65;;;4.10;;
75220;SDS011;63802;53.232;6.570;2023-09-30T00:19:50;17.10;;;3.88;;
75220;SDS011;63802;53.232;6.570;2023-09-30T00:22:15;13.82;;;3.85;;
75220;SDS011;63802;53.232;6.570;2023-09-30T00:24:41;22.90;;;4.10;;
75220;SDS011;63802;53.232;6.570;2023-09-30T00:27:07;13.18;;;3.72;;
75220;SDS011;63802;53.232;6.570;2023-09-30T00:29:32;15.75;;;3.78;;
75220;SDS011;63802;53.232;6.570;2023-09-30T00:31:58;14.20;;;4.25;;
75220;SDS011;63802;53.232;6.570;2023-09-30T00:34:24;11.73;;;4.00;;
75220;SDS011;63802;53.232;6.570;2023-09-30T00:36:49;11.32;;;3.85;;
75220;SDS011;63802;53.232;6.570;2023-09-30T00:39:14;12.43;;;3.53;;
75220;SDS011;63802;53.232;6.570;2023-09-30T00:41:40;13.73;;;3.35;;
75220;SDS011;63802;53.232;6.570;2023-09-30T00:44:05;14.38;;;3.53;;
75220;SDS011;63802;53.232;6.570;2023-09-30T00:46:31;20.52;;;3.80;;
75220;SDS011;63802;53.232;6.570;2023-09-30T00:48:59;17.92;;;4.45;;
75220;SDS011;63802;53.232;6.570;2023-09-30T00:51:26;23.13;;;5.00;;
75220;SDS011;63802;53.232;6.570;2023-09-30T00:53:52;13.55;;;3.28;;
75220;SDS011;63802;53.232;6.570;2023-09-30T00:56:19;10.10;;;3.67;;
75220;SDS011;63802;53.232;6.570;2023-09-30T00:58:45;12.95;;;3.90;;
75220;SDS011;63802;53.232;6.570;2023-09-30T01:01:12;11.63;;;3.83;;
75220;SDS011;63802;53.232;6.570;2023-09-30T01:03:38;14.35;;;3.85;;
75220;SDS011;63802;53.232;6.570;2023-09-30T01:06:03;12.55;;;3.40;;
75220;SDS011;63802;53.232;6.570;2023-09-30T01:08:29;14.63;;;3.88;;
75220;SDS011;63802;53.232;6.570;2023-09-30T01:10:57;22.40;;;4.20;;
75220;SDS011;63802;53.232;6.570;2023-09-30T01:13:23;11.93;;;3.50;;
75220;SDS011;63802;53.232;6.570;2023-09-30T01:15:56;10.27;;;3.88;;
75220;SDS011;63802;53.232;6.570;2023-09-30T01:18:22;13.65;;;3.97;;
75220;SDS011;63802;53.232;6.570;2023-09-30T01:20:47;14.25;;;3.47;;
75220;SDS011;63802;53.232;6.570;2023-09-30T01:23:13;13.95;;;3.88;;
75220;SDS011;63802;53.232;6.570;2023-09-30T01:25:38;12.55;;;3.88;;
75220;SDS011;63802;53.232;6.570;2023-09-30T01:28:07;16.60;;;3.67;;
75220;SDS011;63802;53.232;6.570;2023-09-30T01:30:33;14.27;;;4.60;;
75220;SDS011;63802;53.232;6.570;2023-09-30T01:32:59;10.13;;;3.72;;
75220;SDS011;63802;53.232;6.570;2023-09-30T01:35:25;16.95;;;4.53;;
75220;SDS011;63802;53.232;6.570;2023-09-30T01:37:50;12.15;;;4.13;;
75220;SDS011;63802;53.232;6.570;2023-09-30T01:40:16;11.60;;;4.07;;
75220;SDS011;63802;53.232;6.570;2023-09-30T01:42:43;11.30;;;3.97;;
75220;SDS011;63802;53.232;6.570;2023-09-30T01:45:08;11.43;;;4.35;;
75220;SDS011;63802;53.232;6.570;2023-09-30T01:47:35;14.48;;;4.53;;
75220;SDS011;63802;53.232;6.570;2023-09-30T01:50:00;16.13;;;4.05;;
75220;SDS011;63802;53.232;6.570;2023-09-30T01:52:26;14.23;;;4.10;;
75220;SDS011;63802;53.232;6.570;2023-09-30T01:54:51;13.98;;;4.53;;
75220;SDS011;63802;53.232;6.570;2023-09-30T01:57:16;14.60;;;3.70;;
75220;SDS011;63802;53.232;6.570;2023-09-30T01:59:42;12.85;;;4.05;;
75220;SDS011;63802;53.232;6.570;2023-09-30T02:02:07;16.58;;;4.13;;
75220;SDS011;63802;53.232;6.570;2023-09-30T02:04:33;11.23;;;4.10;;
75220;SDS011;63802;53.232;6.570;2023-09-30T02:06:59;12.80;;;3.75;;
75220;SDS011;63802;53.232;6.570;2023-09-30T02:09:24;11.57;;;3.70;;
75220;SDS011;63802;53.232;6.570;2023-09-30T02:11:49;18.77;;;4.90;;
75220;SDS011;63802;53.232;6.570;2023-09-30T02:14:15;15.65;;;3.90;;
75220;SDS011;63802;53.232;6.570;2023-09-30T02:16:40;13.43;;;3.85;;
75220;SDS011;63802;53.232;6.570;2023-09-30T02:19:05;16.80;;;4.35;;
75220;SDS011;63802;53.232;6.570;2023-09-30T02:21:31;15.32;;;4.68;;
75220;SDS011;63802;53.232;6.570;2023-09-30T02:23:57;17.85;;;5.40;;
75220;SDS011;63802;53.232;6.570;2023-09-30T02:26:22;12.65;;;4.30;;
75220;SDS011;63802;53.232;6.570;2023-09-30T02:28:50;12.63;;;4.03;;
75220;SDS011;63802;53.232;6.570;2023-09-30T02:31:20;9.35;;;4.03;;
75220;SDS011;63802;53.232;6.570;2023-09-30T02:33:45;24.70;;;4.03;;
75220;SDS011;63802;53.232;6.570;2023-09-30T02:36:12;16.65;;;4.28;;
75220;SDS011;63802;53.232;6.570;2023-09-30T02:38:38;10.15;;;3.80;;
75220;SDS011;63802;53.232;6.570;2023-09-30T02:41:03;15.80;;;4.03;;
75220;SDS011;63802;53.232;6.570;2023-09-30T02:43:29;14.35;;;4.00;;
75220;SDS011;63802;53.232;6.570;2023-09-30T02:45:54;12.85;;;3.67;;
75220;SDS011;63802;53.232;6.570;2023-09-30T02:48:20;13.95;;;4.50;;
75220;SDS011;63802;53.232;6.570;2023-09-30T02:50:45;16.58;;;3.97;;
75220;SDS011;63802;53.232;6.570;2023-09-30T02:53:11;18.42;;;4.13;;
75220;SDS011;63802;53.232;6.570;2023-09-30T02:55:40;14.40;;;4.28;;
75220;SDS011;63802;53.232;6.570;2023-09-30T02:58:09;13.15;;;3.83;;
75220;SDS011;63802;53.232;6.570;2023-09-30T03:00:35;15.10;;;4.43;;
75220;SDS011;63802;53.232;6.570;2023-09-30T03:03:02;12.48;;;4.13;;
75220;SDS011;63802;53.232;6.570;2023-09-30T03:05:29;9.00;;;3.20;;
75220;SDS011;63802;53.232;6.570;2023-09-30T03:07:58;18.47;;;4.23;;
75220;SDS011;63802;53.232;6.570;2023-09-30T03:10:27;12.93;;;3.70;;
75220;SDS011;63802;53.232;6.570;2023-09-30T03:12:53;20.10;;;4.00;;
75220;SDS011;63802;53.232;6.570;2023-09-30T03:15:19;13.95;;;4.25;;
75220;SDS011;63802;53.232;6.570;2023-09-30T03:17:44;13.07;;;3.80;;
75220;SDS011;63802;53.232;6.570;2023-09-30T03:20:10;11.57;;;3.90;;
75220;SDS011;63802;53.232;6.570;2023-09-30T03:22:40;15.60;;;4.28;;
75220;SDS011;63802;53.232;6.570;2023-09-30T03:25:07;9.98;;;3.60;;
75220;SDS011;63802;53.232;6.570;2023-09-30T03:27:34;15.68;;;3.90;;
75220;SDS011;63802;53.232;6.570;2023-09-30T03:30:01;15.80;;;3.40;;
75220;SDS011;63802;53.232;6.570;2023-09-30T03:32:30;11.63;;;3.47;;
75220;SDS011;63802;53.232;6.570;2023-09-30T03:34:58;12.50;;;3.92;;
75220;SDS011;63802;53.232;6.570;2023-09-30T03:37:25;12.13;;;3.88;;
75220;SDS011;63802;53.232;6.570;2023-09-30T03:39:53;16.42;;;4.30;;
75220;SDS011;63802;53.232;6.570;2023-09-30T03:42:22;13.10;;;4.15;;
75220;SDS011;63802;53.232;6.570;2023-09-30T03:44:47;12.75;;;3.80;;
75220;SDS011;63802;53.232;6.570;2023-09-30T03:47:16;10.02;;;3.35;;
75220;SDS011;63802;53.232;6.570;2023-09-30T03:49:42;9.68;;;3.80;;
75220;SDS011;63802;53.232;6.570;2023-09-30T03:52:08;13.32;;;4.03;;
75220;SDS011;63802;53.232;6.570;2023-09-30T03:54:35;16.70;;;3.75;;
75220;SDS011;63802;53.232;6.570;2023-09-30T03:57:00;19.77;;;3.95;;
75220;SDS011;63802;53.232;6.570;2023-09-30T03:59:26;11.00;;;3.75;;
75220;SDS011;63802;53.232;6.570;2023-09-30T04:01:52;10.57;;;3.28;;
75220;SDS011;63802;53.232;6.570;2023-09-30T04:04:21;11.30;;;3.40;;
75220;SDS011;63802;53.232;6.570;2023-09-30T04:06:47;19.02;;;4.03;;
75220;SDS011;63802;53.232;6.570;2023-09-30T04:09:15;13.07;;;3.80;;
75220;SDS011;63802;53.232;6.570;2023-09-30T04:11:41;11.43;;;3.53;;
75220;SDS011;63802;53.232;6.570;2023-09-30T04:14:07;18.73;;;4.28;;
75220;SDS011;63802;53.232;6.570;2023-09-30T04:16:33;11.75;;;4.38;;
75220;SDS011;63802;53.232;6.570;2023-09-30T04:19:00;15.85;;;4.53;;
75220;SDS011;63802;53.232;6.570;2023-09-30T04:21:26;12.85;;;3.38;;
75220;SDS011;63802;53.232;6.570;2023-09-30T04:23:53;14.65;;;3.70;;
75220;SDS011;63802;53.232;6.570;2023-09-30T04:26:19;12.02;;;3.78;;
75220;SDS011;63802;53.232;6.570;2023-09-30T04:28:45;11.35;;;3.40;;
75220;SDS011;63802;53.232;6.570;2023-09-30T04:31:10;11.85;;;3.65;;
75220;SDS011;63802;53.232;6.570;2023-09-30T04:33:38;12.52;;;4.00;;
75220;SDS011;63802;53.232;6.570;2023-09-30T04:36:05;11.30;;;3.70;;
75220;SDS011;63802;53.232;6.570;2023-09-30T04:38:33;9.55;;;3.63;;
75220;SDS011;63802;53.232;6.570;2023-09-30T04:40:58;16.77;;;4.00;;
75220;SDS011;63802;53.232;6.570;2023-09-30T04:43:25;15.70;;;4.32;;
75220;SDS011;63802;53.232;6.570;2023-09-30T04:45:54;11.43;;;3.80;;
75220;SDS011;63802;53.232;6.570;2023-09-30T04:48:22;15.23;;;4.50;;
75220;SDS011;63802;53.232;6.570;2023-09-30T04:50:48;11.13;;;3.47;;
75220;SDS011;63802;53.232;6.570;2023-09-30T04:53:13;13.63;;;3.97;;
75220;SDS011;63802;53.232;6.570;2023-09-30T04:55:40;16.30;;;3.95;;
75220;SDS011;63802;53.232;6.570;2023-09-30T04:58:06;11.90;;;3.67;;
75220;SDS011;63802;53.232;6.570;2023-09-30T05:00:32;12.60;;;4.57;;
75220;SDS011;63802;53.232;6.570;2023-09-30T05:02:58;14.30;;;4.20;;
75220;SDS011;63802;53.232;6.570;2023-09-30T05:05:24;9.57;;;3.92;;
75220;SDS011;63802;53.232;6.570;2023-09-30T05:07:49;16.13;;;5.10;;
75220;SDS011;63802;53.232;6.570;2023-09-30T05:10:15;13.73;;;4.07;;
75220;SDS011;63802;53.232;6.570;2023-09-30T05:12:41;12.70;;;4.40;;
75220;SDS011;63802;53.232;6.570;2023-09-30T05:15:12;17.77;;;5.25;;
75220;SDS011;63802;53.232;6.570;2023-09-30T05:17:41;12.55;;;4.18;;
75220;SDS011;63802;53.232;6.570;2023-09-30T05:20:08;18.75;;;4.57;;
75220;SDS011;63802;53.232;6.570;2023-09-30T05:22:35;15.50;;;4.45;;
75220;SDS011;63802;53.232;6.570;2023-09-30T05:25:01;15.32;;;4.88;;
75220;SDS011;63802;53.232;6.570;2023-09-30T05:27:27;16.25;;;5.88;;
75220;SDS011;63802;53.232;6.570;2023-09-30T05:29:53;18.27;;;4.82;;
75220;SDS011;63802;53.232;6.570;2023-09-30T05:32:19;20.02;;;4.95;;
75220;SDS011;63802;53.232;6.570;2023-09-30T05:34:44;12.98;;;4.80;;
75220;SDS011;63802;53.232;6.570;2023-09-30T05:37:09;15.00;;;4.80;;
75220;SDS011;63802;53.232;6.570;2023-09-30T05:39:37;17.65;;;5.07;;
75220;SDS011;63802;53.232;6.570;2023-09-30T05:42:02;15.32;;;5.50;;
75220;SDS011;63802;53.232;6.570;2023-09-30T05:44:28;12.52;;;4.90;;
75220;SDS011;63802;53.232;6.570;2023-09-30T05:46:54;14.20;;;5.65;;
75220;SDS011;63802;53.232;6.570;2023-09-30T05:49:19;19.48;;;5.70;;
75220;SDS011;63802;53.232;6.570;2023-09-30T05:51:45;16.38;;;6.50;;
75220;SDS011;63802;53.232;6.570;2023-09-30T05:54:11;17.67;;;6.07;;
75220;SDS011;63802;53.232;6.570;2023-09-30T05:56:37;17.77;;;5.75;;
75220;SDS011;63802;53.232;6.570;2023-09-30T05:59:06;19.58;;;6.53;;
75220;SDS011;63802;53.232;6.570;2023-09-30T06:01:32;15.47;;;5.80;;
75220;SDS011;63802;53.232;6.570;2023-09-30T06:03:58;18.15;;;5.80;;
75220;SDS011;63802;53.232;6.570;2023-09-30T06:06:25;21.75;;;6.18;;
75220;SDS011;63802;53.232;6.570;2023-09-30T06:08:51;20.30;;;6.13;;
75220;SDS011;63802;53.232;6.570;2023-09-30T06:11:18;18.35;;;5.97;;
75220;SDS011;63802;53.232;6.570;2023-09-30T06:13:49;18.17;;;6.15;;
75220;SDS011;63802;53.232;6.570;2023-09-30T06:16:15;19.95;;;6.32;;
75220;SDS011;63802;53.232;6.570;2023-09-30T06:18:41;19.58;;;7.10;;
75220;SDS011;63802;53.232;6.570;2023-09-30T06:21:06;20.20;;;6.05;;
75220;SDS011;63802;53.232;6.570;2023-09-30T06:23:35;19.95;;;6.60;;
75220;SDS011;63802;53.232;6.570;2023-09-30T06:26:00;16.60;;;6.47;;
75220;SDS011;63802;53.232;6.570;2023-09-30T06:28:27;19.73;;;7.60;;
75220;SDS011;63802;53.232;6.570;2023-09-30T06:30:56;19.40;;;7.60;;
75220;SDS011;63802;53.232;6.570;2023-09-30T06:33:21;24.70;;;7.65;;
75220;SDS011;63802;53.232;6.570;2023-09-30T06:35:47;22.50;;;7.03;;
75220;SDS011;63802;53.232;6.570;2023-09-30T06:38:24;21.83;;;7.10;;
75220;SDS011;63802;53.232;6.570;2023-09-30T06:40:49;20.25;;;7.22;;
75220;SDS011;63802;53.232;6.570;2023-09-30T06:43:15;20.75;;;5.97;;
75220;SDS011;63802;53.232;6.570;2023-09-30T06:45:41;19.17;;;7.43;;
75220;SDS011;63802;53.232;6.570;2023-09-30T06:48:08;21.55;;;6.88;;
75220;SDS011;63802;53.232;6.570;2023-09-30T06:50:48;18.83;;;6.38;;
75220;SDS011;63802;53.232;6.570;2023-09-30T06:53:15;18.52;;;6.72;;
75220;SDS011;63802;53.232;6.570;2023-09-30T06:55:41;21.77;;;7.25;;
75220;SDS011;63802;53.232;6.570;2023-09-30T06:58:08;21.17;;;7.15;;
75220;SDS011;63802;53.232;6.570;2023-09-30T07:00:35;17.90;;;7.20;;
75220;SDS011;63802;53.232;6.570;2023-09-30T07:03:04;16.40;;;6.70;;
75220;SDS011;63802;53.232;6.570;2023-09-30T07:05:30;20.48;;;6.78;;
75220;SDS011;63802;53.232;6.570;2023-09-30T07:07:56;18.58;;;6.70;;
75220;SDS011;63802;53.232;6.570;2023-09-30T07:10:21;18.15;;;5.43;;
75220;SDS011;63802;53.232;6.570;2023-09-30T07:12:47;17.25;;;6.55;;
75220;SDS011;63802;53.232;6.570;2023-09-30T07:15:12;26.83;;;6.85;;
75220;SDS011;63802;53.232;6.570;2023-09-30T07:17:39;13.45;;;5.47;;
75220;SDS011;63802;53.232;6.570;2023-09-30T07:20:05;17.52;;;6.20;;
75220;SDS011;63802;53.232;6.570;2023-09-30T07:22:32;20.02;;;6.55;;
75220;SDS011;63802;53.232;6.570;2023-09-30T07:27:28;15.38;;;5.20;;
75220;SDS011;63802;53.232;6.570;2023-09-30T07:29:57;16.25;;;4.60;;
75220;SDS011;63802;53.232;6.570;2023-09-30T07:32:22;14.00;;;5.03;;
75220;SDS011;63802;53.232;6.570;2023-09-30T07:34:49;13.35;;;4.72;;
75220;SDS011;63802;53.232;6.570;2023-09-30T07:37:15;15.88;;;4.88;;
75220;SDS011;63802;53.232;6.570;2023-09-30T07:39:42;15.95;;;4.85;;
75220;SDS011;63802;53.232;6.570;2023-09-30T07:42:09;15.00;;;4.75;;
75220;SDS011;63802;53.232;6.570;2023-09-30T07:44:35;12.55;;;4.28;;
75220;SDS011;63802;53.232;6.570;2023-09-30T07:47:02;9.60;;;4.05;;
75220;SDS011;63802;53.232;6.570;2023-09-30T07:49:28;13.70;;;4.38;;
75220;SDS011;63802;53.232;6.570;2023-09-30T07:51:54;10.95;;;4.55;;
75220;SDS011;63802;53.232;6.570;2023-09-30T07:54:20;11.10;;;4.45;;
75220;SDS011;63802;53.232;6.570;2023-09-30T07:56:45;12.75;;;4.72;;
75220;SDS011;63802;53.232;6.570;2023-09-30T07:59:10;15.10;;;5.22;;
75220;SDS011;63802;53.232;6.570;2023-09-30T08:01:36;15.65;;;4.80;;
75220;SDS011;63802;53.232;6.570;2023-09-30T08:04:02;9.35;;;3.90;;
75220;SDS011;63802;53.232;6.570;2023-09-30T08:06:28;13.50;;;4.68;;
75220;SDS011;63802;53.232;6.570;2023-09-30T08:08:53;11.00;;;4.35;;
75220;SDS011;63802;53.232;6.570;2023-09-30T08:11:21;10.10;;;4.25;;
75220;SDS011;63802;53.232;6.570;2023-09-30T08:13:46;11.43;;;4.88;;
75220;SDS011;63802;53.232;6.570;2023-09-30T08:16:12;11.60;;;4.32;;
75220;SDS011;63802;53.232;6.570;2023-09-30T08:18:38;12.88;;;4.80;;
75220;SDS011;63802;53.232;6.570;2023-09-30T08:21:03;15.80;;;4.57;;
75220;SDS011;63802;53.232;6.570;2023-09-30T08:23:30;11.05;;;4.47;;
75220;SDS011;63802;53.232;6.570;2023-09-30T08:25:58;16.13;;;4.68;;
75220;SDS011;63802;53.232;6.570;2023-09-30T08:28:24;10.68;;;4.30;;
75220;SDS011;63802;53.232;6.570;2023-09-30T08:30:49;10.38;;;3.85;;
75220;SDS011;63802;53.232;6.570;2023-09-30T08:33:16;13.18;;;4.45;;
75220;SDS011;63802;53.232;6.570;2023-09-30T08:35:41;13.77;;;5.10;;
75220;SDS011;63802;53.232;6.570;2023-09-30T08:38:07;10.85;;;4.07;;
75220;SDS011;63802;53.232;6.570;2023-09-30T08:40:32;12.88;;;3.95;;
75220;SDS011;63802;53.232;6.570;2023-09-30T08:42:58;11.10;;;4.13;;
75220;SDS011;63802;53.232;6.570;2023-09-30T08:45:24;20.55;;;4.07;;
75220;SDS011;63802;53.232;6.570;2023-09-30T08:47:58;13.18;;;3.78;;
75220;SDS011;63802;53.232;6.570;2023-09-30T08:50:30;13.75;;;3.63;;
75220;SDS011;63802;53.232;6.570;2023-09-30T08:52:56;12.23;;;3.58;;
75220;SDS011;63802;53.232;6.570;2023-09-30T08:55:22;8.88;;;3.50;;
75220;SDS011;63802;53.232;6.570;2023-09-30T09:00:17;11.30;;;3.35;;
75220;SDS011;63802;53.232;6.570;2023-09-30T09:02:43;8.93;;;3.10;;
75220;SDS011;63802;53.232;6.570;2023-09-30T09:05:08;12.98;;;3.72;;
75220;SDS011;63802;53.232;6.570;2023-09-30T09:07:34;7.55;;;3.10;;
75220;SDS011;63802;53.232;6.570;2023-09-30T09:10:07;10.82;;;2.92;;
75220;SDS011;63802;53.232;6.570;2023-09-30T09:12:34;11.32;;;2.97;;
75220;SDS011;63802;53.232;6.570;2023-09-30T09:15:02;8.25;;;3.05;;
75220;SDS011;63802;53.232;6.570;2023-09-30T09:17:41;7.95;;;2.95;;
75220;SDS011;63802;53.232;6.570;2023-09-30T09:20:08;8.98;;;2.85;;
75220;SDS011;63802;53.232;6.570;2023-09-30T09:22:42;9.07;;;3.03;;
75220;SDS011;63802;53.232;6.570;2023-09-30T09:25:09;10.30;;;3.25;;
75220;SDS011;63802;53.232;6.570;2023-09-30T09:27:35;8.57;;;2.80;;
75220;SDS011;63802;53.232;6.570;2023-09-30T09:30:15;5.78;;;2.30;;
75220;SDS011;63802;53.232;6.570;2023-09-30T09:32:58;9.48;;;2.40;;
75220;SDS011;63802;53.232;6.570;2023-09-30T09:35:25;5.15;;;2.42;;
75220;SDS011;63802;53.232;6.570;2023-09-30T09:40:33;7.15;;;3.08;;
75220;SDS011;63802;53.232;6.570;2023-09-30T09:43:05;12.80;;;2.70;;
75220;SDS011;63802;53.232;6.570;2023-09-30T09:45:35;9.73;;;2.70;;
75220;SDS011;63802;53.232;6.570;2023-09-30T09:48:06;8.82;;;2.50;;
75220;SDS011;63802;53.232;6.570;2023-09-30T09:50:32;14.25;;;3.08;;
75220;SDS011;63802;53.232;6.570;2023-09-30T09:52:58;10.95;;;2.70;;
75220;SDS011;63802;53.232;6.570;2023-09-30T09:55:25;7.55;;;2.38;;
75220;SDS011;63802;53.232;6.570;2023-09-30T09:57:52;9.02;;;2.40;;
75220;SDS011;63802;53.232;6.570;2023-09-30T10:00:23;12.23;;;2.17;;
75220;SDS011;63802;53.232;6.570;2023-09-30T10:02:50;11.10;;;2.22;;
75220;SDS011;63802;53.232;6.570;2023-09-30T10:05:17;12.88;;;2.55;;
75220;SDS011;63802;53.232;6.570;2023-09-30T10:08:03;8.07;;;2.15;;
75220;SDS011;63802;53.232;6.570;2023-09-30T10:10:36;10.85;;;2.50;;
75220;SDS011;63802;53.232;6.570;2023-09-30T10:13:02;6.68;;;2.00;;
75220;SDS011;63802;53.232;6.570;2023-09-30T10:18:01;6.78;;;1.90;;
75220;SDS011;63802;53.232;6.570;2023-09-30T10:20:40;6.22;;;2.10;;
75220;SDS011;63802;53.232;6.570;2023-09-30T10:25:46;6.97;;;1.70;;
75220;SDS011;63802;53.232;6.570;2023-09-30T10:36:26;6.30;;;1.80;;
75220;SDS011;63802;53.232;6.570;2023-09-30T10:38:52;5.00;;;1.90;;
75220;SDS011;63802;53.232;6.570;2023-09-30T10:41:48;5.38;;;1.67;;
75220;SDS011;63802;53.232;6.570;2023-09-30T10:46:50;7.60;;;1.80;;
75220;SDS011;63802;53.232;6.570;2023-09-30T10:51:54;3.80;;;1.60;;
75220;SDS011;63802;53.232;6.570;2023-09-30T10:54:31;8.40;;;2.03;;
75220;SDS011;63802;53.232;6.570;2023-09-30T10:56:58;7.40;;;2.08;;
75220;SDS011;63802;53.232;6.570;2023-09-30T10:59:24;7.85;;;1.65;;
75220;SDS011;63802;53.232;6.570;2023-09-30T11:01:51;5.97;;;1.52;;
75220;SDS011;63802;53.232;6.570;2023-09-30T11:04:20;5.07;;;1.67;;
75220;SDS011;63802;53.232;6.570;2023-09-30T11:06:46;5.50;;;1.75;;
75220;SDS011;63802;53.232;6.570;2023-09-30T11:09:17;4.03;;;1.05;;
75220;SDS011;63802;53.232;6.570;2023-09-30T11:11:48;7.07;;;1.63;;
75220;SDS011;63802;53.232;6.570;2023-09-30T11:16:48;14.73;;;1.90;;
75220;SDS011;63802;53.232;6.570;2023-09-30T11:19:15;5.93;;;1.80;;
75220;SDS011;63802;53.232;6.570;2023-09-30T11:21:42;4.75;;;1.58;;
75220;SDS011;63802;53.232;6.570;2023-09-30T11:24:09;8.75;;;1.55;;
75220;SDS011;63802;53.232;6.570;2023-09-30T11:26:34;6.53;;;1.75;;
75220;SDS011;63802;53.232;6.570;2023-09-30T11:31:43;7.72;;;1.50;;
75220;SDS011;63802;53.232;6.570;2023-09-30T11:34:16;6.53;;;1.30;;
75220;SDS011;63802;53.232;6.570;2023-09-30T11:36:52;5.80;;;1.30;;
75220;SDS011;63802;53.232;6.570;2023-09-30T11:39:22;6.70;;;1.40;;
75220;SDS011;63802;53.232;6.570;2023-09-30T11:41:48;8.13;;;1.58;;
75220;SDS011;63802;53.232;6.570;2023-09-30T11:44:15;6.63;;;1.58;;
75220;SDS011;63802;53.232;6.570;2023-09-30T11:47:01;5.65;;;1.30;;
75220;SDS011;63802;53.232;6.570;2023-09-30T11:49:34;5.03;;;1.50;;
75220;SDS011;63802;53.232;6.570;2023-09-30T11:52:08;6.13;;;1.10;;
75220;SDS011;63802;53.232;6.570;2023-09-30T11:54:39;6.93;;;1.20;;
75220;SDS011;63802;53.232;6.570;2023-09-30T11:57:08;7.25;;;1.70;;
75220;SDS011;63802;53.232;6.570;2023-09-30T11:59:35;5.53;;;1.55;;
75220;SDS011;63802;53.232;6.570;2023-09-30T12:02:05;4.43;;;1.48;;
75220;SDS011;63802;53.232;6.570;2023-09-30T12:04:36;4.47;;;1.40;;
75220;SDS011;63802;53.232;6.570;2023-09-30T12:07:02;5.45;;;1.50;;
75220;SDS011;63802;53.232;6.570;2023-09-30T12:09:36;5.38;;;1.50;;
75220;SDS011;63802;53.232;6.570;2023-09-30T12:12:05;5.68;;;1.45;;
75220;SDS011;63802;53.232;6.570;2023-09-30T12:14:37;9.93;;;2.35;;
75220;SDS011;63802;53.232;6.570;2023-09-30T12:17:05;7.68;;;1.67;;
75220;SDS011;63802;53.232;6.570;2023-09-30T12:19:35;6.15;;;1.50;;
75220;SDS011;63802;53.232;6.570;2023-09-30T12:22:01;6.65;;;1.45;;
75220;SDS011;63802;53.232;6.570;2023-09-30T12:24:27;8.15;;;1.52;;
75220;SDS011;63802;53.232;6.570;2023-09-30T12:26:53;5.78;;;1.65;;
75220;SDS011;63802;53.232;6.570;2023-09-30T12:29:19;6.80;;;1.80;;
75220;SDS011;63802;53.232;6.570;2023-09-30T12:31:51;13.02;;;2.05;;
75220;SDS011;63802;53.232;6.570;2023-09-30T12:34:17;7.10;;;1.45;;
75220;SDS011;63802;53.232;6.570;2023-09-30T12:36:43;10.73;;;1.70;;
75220;SDS011;63802;53.232;6.570;2023-09-30T12:39:09;7.43;;;1.73;;
75220;SDS011;63802;53.232;6.570;2023-09-30T12:41:39;7.43;;;1.70;;
75220;SDS011;63802;53.232;6.570;2023-09-30T12:44:09;6.35;;;1.50;;
75220;SDS011;63802;53.232;6.570;2023-09-30T12:46:35;7.13;;;1.85;;
75220;SDS011;63802;53.232;6.570;2023-09-30T12:49:08;5.95;;;1.70;;
75220;SDS011;63802;53.232;6.570;2023-09-30T12:51:34;9.25;;;1.65;;
75220;SDS011;63802;53.232;6.570;2023-09-30T12:54:01;6.60;;;1.70;;
75220;SDS011;63802;53.232;6.570;2023-09-30T12:56:27;4.47;;;1.35;;
75220;SDS011;63802;53.232;6.570;2023-09-30T13:01:22;5.03;;;1.50;;
75220;SDS011;63802;53.232;6.570;2023-09-30T13:03:48;6.10;;;1.58;;
75220;SDS011;63802;53.232;6.570;2023-09-30T13:06:15;5.15;;;1.10;;
75220;SDS011;63802;53.232;6.570;2023-09-30T13:08:42;5.93;;;1.50;;
75220;SDS011;63802;53.232;6.570;2023-09-30T13:11:08;4.68;;;1.13;;
75220;SDS011;63802;53.232;6.570;2023-09-30T13:13:34;8.35;;;1.65;;
75220;SDS011;63802;53.232;6.570;2023-09-30T13:16:00;6.03;;;1.30;;
75220;SDS011;63802;53.232;6.570;2023-09-30T13:18:27;6.18;;;1.20;;
75220;SDS011;63802;53.232;6.570;2023-09-30T13:20:52;8.32;;;1.48;;
75220;SDS011;63802;53.232;6.570;2023-09-30T13:23:18;4.47;;;1.48;;
75220;SDS011;63802;53.232;6.570;2023-09-30T13:25:45;4.88;;;1.60;;
75220;SDS011;63802;53.232;6.570;2023-09-30T13:28:13;6.75;;;1.83;;
75220;SDS011;63802;53.232;6.570;2023-09-30T13:30:39;8.32;;;1.83;;
75220;SDS011;63802;53.232;6.570;2023-09-30T13:33:05;8.05;;;1.55;;
75220;SDS011;63802;53.232;6.570;2023-09-30T13:35:34;3.90;;;1.45;;
75220;SDS011;63802;53.232;6.570;2023-09-30T13:38:01;6.13;;;1.40;;
75220;SDS011;63802;53.232;6.570;2023-09-30T13:40:28;8.07;;;1.45;;
75220;SDS011;63802;53.232;6.570;2023-09-30T13:42:57;6.90;;;1.40;;
75220;SDS011;63802;53.232;6.570;2023-09-30T13:45:23;9.63;;;1.40;;
75220;SDS011;63802;53.232;6.570;2023-09-30T13:47:49;7.25;;;2.00;;
75220;SDS011;63802;53.232;6.570;2023-09-30T13:50:14;9.63;;;2.00;;
75220;SDS011;63802;53.232;6.570;2023-09-30T13:52:41;8.57;;;1.42;;
75220;SDS011;63802;53.232;6.570;2023-09-30T13:55:06;8.13;;;1.92;;
75220;SDS011;63802;53.232;6.570;2023-09-30T13:57:33;8.82;;;1.98;;
75220;SDS011;63802;53.232;6.570;2023-09-30T14:00:00;3.33;;;1.20;;
75220;SDS011;63802;53.232;6.570;2023-09-30T14:02:28;4.95;;;1.40;;
75220;SDS011;63802;53.232;6.570;2023-09-30T14:04:53;4.50;;;1.65;;
75220;SDS011;63802;53.232;6.570;2023-09-30T14:07:19;7.32;;;1.80;;
75220;SDS011;63802;53.232;6.570;2023-09-30T14:09:45;9.38;;;1.98;;
75220;SDS011;63802;53.232;6.570;2023-09-30T14:12:10;6.47;;;1.50;;
75220;SDS011;63802;53.232;6.570;2023-09-30T14:14:35;6.97;;;1.73;;
75220;SDS011;63802;53.232;6.570;2023-09-30T14:17:01;6.97;;;2.10;;
75220;SDS011;63802;53.232;6.570;2023-09-30T14:19:32;4.82;;;1.20;;
75220;SDS011;63802;53.232;6.570;2023-09-30T14:21:58;3.30;;;1.20;;
75220;SDS011;63802;53.232;6.570;2023-09-30T14:24:24;5.88;;;1.98;;
75220;SDS011;63802;53.232;6.570;2023-09-30T14:26:49;8.98;;;1.83;;
75220;SDS011;63802;53.232;6.570;2023-09-30T14:29:15;7.10;;;1.48;;
75220;SDS011;63802;53.232;6.570;2023-09-30T14:31:40;6.97;;;1.60;;
75220;SDS011;63802;53.232;6.570;2023-09-30T14:34:06;5.95;;;1.50;;
75220;SDS011;63802;53.232;6.570;2023-09-30T14:36:31;8.38;;;1.80;;
75220;SDS011;63802;53.232;6.570;2023-09-30T14:38:58;6.28;;;1.50;;
75220;SDS011;63802;53.232;6.570;2023-09-30T14:41:24;9.18;;;1.80;;
75220;SDS011;63802;53.232;6.570;2023-09-30T14:43:49;4.57;;;1.40;;
75220;SDS011;63802;53.232;6.570;2023-09-30T14:46:15;10.70;;;1.58;;
75220;SDS011;63802;53.232;6.570;2023-09-30T14:48:40;10.05;;;1.90;;
75220;SDS011;63802;53.232;6.570;2023-09-30T14:51:07;3.97;;;1.33;;
75220;SDS011;63802;53.232;6.570;2023-09-30T14:53:33;6.85;;;1.38;;
75220;SDS011;63802;53.232;6.570;2023-09-30T14:55:59;6.13;;;1.45;;
75220;SDS011;63802;53.232;6.570;2023-09-30T14:58:24;7.00;;;1.55;;
75220;SDS011;63802;53.232;6.570;2023-09-30T15:00:50;9.88;;;1.60;;
75220;SDS011;63802;53.232;6.570;2023-09-30T15:03:15;7.72;;;1.63;;
75220;SDS011;63802;53.232;6.570;2023-09-30T15:05:41;5.63;;;1.90;;
75220;SDS011;63802;53.232;6.570;2023-09-30T15:08:07;8.73;;;1.80;;
75220;SDS011;63802;53.232;6.570;2023-09-30T15:10:35;12.90;;;2.28;;